Time;durP1;ratioP1;P1;durP2;ratioP2;P2;SDS_P1;SDS_P2;PMS_P1;PMS_P2;Temp;Humidity;BMP_temperature;BMP_pressure;BME280_temperature;BME280_humidity;BME280_pressure;Samples;Min_cycle;Max_cycle;Signal;HPM_P1;HPM_P2
2022/12/26 00:01:59;;;;;;;4.28;3.53;;;14.20;82.00;;;;;;5031894;28;20046;-51
2022/12/26 00:04:35;;;;;;;7.35;4.47;;;14.20;82.00;;;;;;5034775;28;20512;-51
2022/12/26 00:07:20;;;;;;;4.15;3.70;;;14.20;82.00;;;;;;5043574;28;20056;-50
2022/12/26 00:09:53;;;;;;;4.50;3.22;;;14.20;81.90;;;;;;5043036;28;20128;-52
2022/12/26 00:12:19;;;;;;;7.65;3.90;;;14.20;81.90;;;;;;5042398;28;20569;-52
2022/12/26 00:14:49;;;;;;;3.08;2.78;;;14.20;81.90;;;;;;5048836;28;20049;-51
2022/12/26 00:17:15;;;;;;;2.33;1.45;;;14.20;81.90;;;;;;5041619;28;20056;-51
2022/12/26 00:19:45;;;;;;;1.55;1.45;;;14.20;81.90;;;;;;5051406;28;20055;-51
2022/12/26 00:22:21;;;;;;;3.92;2.20;;;14.20;81.90;;;;;;5031696;28;20033;-52
2022/12/26 00:24:47;;;;;;;1.75;1.65;;;14.10;82.10;;;;;;5045938;28;20493;-51
2022/12/26 00:27:18;;;;;;;2.50;1.55;;;14.20;82.00;;;;;;5042422;28;20126;-52
2022/12/26 00:29:46;;;;;;;2.08;1.90;;;14.10;82.00;;;;;;5032303;28;20075;-49
2022/12/26 00:32:17;;;;;;;2.05;1.85;;;14.10;82.00;;;;;;5047133;28;20529;-51
2022/12/26 00:34:44;;;;;;;2.13;1.70;;;14.10;82.10;;;;;;5051991;28;20049;-49
2022/12/26 00:37:11;;;;;;;2.40;1.67;;;14.10;82.00;;;;;;5043844;28;20045;-51
2022/12/26 00:39:39;;;;;;;1.70;1.42;;;14.00;82.00;;;;;;5048944;28;20037;-51
2022/12/26 00:42:06;;;;;;;1.35;1.20;;;14.10;82.10;;;;;;5047999;28;20056;-51
2022/12/26 00:44:35;;;;;;;1.35;1.13;;;14.00;82.00;;;;;;5052115;28;20069;-54
2022/12/26 00:47:02;;;;;;;1.80;1.20;;;14.00;82.10;;;;;;5043244;28;20068;-50
2022/12/26 00:49:31;;;;;;;1.10;1.00;;;14.00;82.00;;;;;;5050433;28;20052;-53
2022/12/26 00:52:17;;;;;;;1.25;1.15;;;14.00;82.10;;;;;;5046040;28;20041;-48
2022/12/26 00:54:45;;;;;;;1.30;1.10;;;14.00;82.00;;;;;;5035834;28;20046;-52
2022/12/26 00:57:13;;;;;;;1.17;0.98;;;13.90;82.00;;;;;;5043962;28;20037;-52
2022/12/26 00:59:42;;;;;;;1.42;0.80;;;13.90;82.10;;;;;;5031138;28;20048;-50
2022/12/26 01:02:36;;;;;;;1.00;0.80;;;13.90;82.10;;;;;;5044312;28;20112;-52
2022/12/26 01:05:00;;;;;;;0.75;0.75;;;14.00;82.20;;;;;;5041867;28;20095;-51
2022/12/26 01:07:32;;;;;;;1.25;0.80;;;13.90;82.20;;;;;;5051362;28;20044;-51
2022/12/26 01:10:22;;;;;;;1.05;0.93;;;13.90;82.20;;;;;;5044885;28;20040;-51
2022/12/26 01:12:51;;;;;;;1.33;0.80;;;13.90;81.90;;;;;;5024722;28;20041;-51
2022/12/26 01:15:18;;;;;;;1.70;1.17;;;13.90;81.90;;;;;;5049195;28;20049;-52
2022/12/26 01:17:55;;;;;;;1.23;1.13;;;13.90;82.10;;;;;;5049370;28;20064;-50
2022/12/26 01:20:22;;;;;;;0.88;0.88;;;13.90;82.00;;;;;;5042405;28;20501;-51
2022/12/26 01:22:48;;;;;;;1.20;1.10;;;13.90;82.10;;;;;;5043949;28;20041;-51
2022/12/26 01:25:16;;;;;;;1.80;1.25;;;13.80;82.20;;;;;;5041873;28;20560;-51
2022/12/26 01:27:48;;;;;;;1.65;1.35;;;13.90;82.20;;;;;;5044509;28;20124;-51
2022/12/26 01:30:17;;;;;;;1.45;1.35;;;13.80;82.20;;;;;;5046244;28;20045;-51
2022/12/26 01:32:45;;;;;;;1.52;1.30;;;13.80;82.10;;;;;;5034601;28;20120;-51
2022/12/26 01:35:12;;;;;;;1.73;1.55;;;13.80;82.20;;;;;;5033348;28;20119;-52
2022/12/26 01:37:39;;;;;;;1.90;1.73;;;13.80;82.20;;;;;;5043568;28;20037;-51
2022/12/26 01:40:06;;;;;;;2.78;1.70;;;13.80;82.20;;;;;;5044454;28;20509;-50
2022/12/26 01:42:39;;;;;;;1.75;1.58;;;13.80;82.30;;;;;;5020416;28;20049;-52
2022/12/26 01:45:23;;;;;;;2.20;1.80;;;13.80;83.00;;;;;;5029887;28;20092;-52
2022/12/26 01:48:00;;;;;;;2.75;1.58;;;13.80;82.40;;;;;;5041884;28;20085;-51
2022/12/26 01:50:34;;;;;;;2.22;2.03;;;13.80;82.40;;;;;;5041482;28;20037;-52
2022/12/26 01:53:13;;;;;;;2.22;2.00;;;13.90;82.40;;;;;;5050326;28;20049;-52
2022/12/26 01:55:42;;;;;;;2.88;2.53;;;13.80;82.50;;;;;;5021326;28;20049;-51
2022/12/26 01:58:15;;;;;;;2.58;2.05;;;13.80;82.40;;;;;;5046589;28;20570;-52
2022/12/26 02:00:44;;;;;;;2.72;2.42;;;13.80;82.50;;;;;;5041628;28;20045;-50
2022/12/26 02:06:01;;;;;;;2.22;2.08;;;13.80;82.50;;;;;;5044990;28;20136;-52
2022/12/26 02:08:33;;;;;;;2.03;1.90;;;13.90;82.40;;;;;;5045733;28;20116;-51
2022/12/26 02:11:09;;;;;;;2.13;1.90;;;13.90;82.50;;;;;;5045761;28;20087;-52
2022/12/26 02:13:42;;;;;;;1.83;1.73;;;13.90;82.50;;;;;;5030458;28;20072;-53
2022/12/26 02:16:17;;;;;;;2.25;1.80;;;13.90;82.30;;;;;;5043942;28;20033;-51
2022/12/26 02:18:44;;;;;;;2.30;1.80;;;13.90;82.20;;;;;;5049922;28;20041;-51
2022/12/26 02:21:32;;;;;;;1.70;1.58;;;13.90;82.00;;;;;;5041104;28;20041;-51
2022/12/26 02:24:46;;;;;;;2.78;2.22;;;13.90;82.10;;;;;;5034091;28;20041;-52
2022/12/26 02:27:49;;;;;;;2.05;1.88;;;13.90;82.20;;;;;;5044737;28;20128;-51
2022/12/26 02:30:45;;;;;;;2.50;2.08;;;13.80;82.00;;;;;;5028830;28;20041;-51
2022/12/26 02:33:19;;;;;;;3.33;2.75;;;13.80;81.90;;;;;;5029353;28;20144;-52
2022/12/26 02:35:59;;;;;;;2.80;2.35;;;13.80;81.80;;;;;;5039202;28;20053;-51
2022/12/26 02:39:03;;;;;;;2.90;2.65;;;13.80;81.90;;;;;;5036983;28;20052;-52
2022/12/26 02:42:11;;;;;;;5.22;3.33;;;13.80;82.00;;;;;;5049966;28;20041;-51
2022/12/26 02:48:03;;;;;;;;;;;13.80;81.70;;;;;;5034926;28;20045;-49
2022/12/26 03:15:16;;;;;;;3.55;3.25;;;13.60;81.60;;;;;;5047075;28;20041;-53
2022/12/26 03:17:54;;;;;;;3.50;3.20;;;13.60;81.50;;;;;;5049280;28;20043;-51
2022/12/26 03:20:28;;;;;;;3.33;3.03;;;13.60;81.70;;;;;;5052860;28;20036;-51
2022/12/26 03:23:09;;;;;;;2.85;2.65;;;13.60;81.70;;;;;;5049417;28;20540;-52
2022/12/26 03:28:42;;;;;;;2.97;2.67;;;13.60;81.50;;;;;;5032732;28;20546;-52
2022/12/26 03:31:14;;;;;;;3.08;2.88;;;13.50;81.20;;;;;;5037843;28;20083;-51
2022/12/26 03:37:13;;;;;;;3.10;2.53;;;13.50;80.90;;;;;;5033067;28;20080;-53
2022/12/26 04:44:37;;;;;;;4.40;3.22;;;13.10;81.00;;;;;;5044861;28;20037;-50
2022/12/26 04:47:07;;;;;;;5.10;3.65;;;13.10;81.10;;;;;;5047291;28;20049;-50
2022/12/26 04:52:53;;;;;;;4.93;3.95;;;13.10;81.20;;;;;;5052140;28;20045;-51
2022/12/26 04:55:21;;;;;;;4.95;4.00;;;13.10;81.10;;;;;;5040875;28;20048;-51
2022/12/26 04:57:52;;;;;;;4.75;4.32;;;13.10;81.10;;;;;;5043673;28;20091;-55
2022/12/26 05:00:23;;;;;;;5.00;4.50;;;13.10;81.20;;;;;;5042964;28;20124;-51
2022/12/26 05:11:28;;;;;;;5.25;3.85;;;13.10;81.10;;;;;;5031261;28;20055;-53
2022/12/26 05:14:00;;;;;;;4.75;3.78;;;13.10;81.10;;;;;;5033043;28;20124;-52
2022/12/26 05:30:30;;;;;;;3.70;3.40;;;13.10;81.00;;;;;;5050523;28;20505;-51
2022/12/26 05:35:43;;;;;;;3.35;3.10;;;13.10;81.70;;;;;;5041849;28;20076;-55
2022/12/26 05:38:16;;;;;;;4.65;3.13;;;13.10;81.10;;;;;;5051581;28;20095;-55
2022/12/26 05:40:43;;;;;;;4.18;3.72;;;13.10;81.20;;;;;;5043550;28;20057;-55
2022/12/26 05:43:19;;;;;;;3.55;3.20;;;13.10;81.20;;;;;;5047670;28;20107;-53
2022/12/26 05:45:51;;;;;;;3.13;2.92;;;13.10;81.20;;;;;;5044304;28;20592;-56
2022/12/26 05:48:18;;;;;;;4.55;3.20;;;13.10;81.20;;;;;;5031480;28;20072;-54
2022/12/26 05:50:46;;;;;;;3.75;3.20;;;13.10;81.20;;;;;;5036638;28;20045;-55
2022/12/26 05:53:16;;;;;;;3.90;3.47;;;13.10;81.20;;;;;;5047689;28;20037;-55
2022/12/26 05:55:44;;;;;;;4.85;3.40;;;13.10;81.20;;;;;;5035516;28;20045;-50
2022/12/26 05:58:14;;;;;;;3.67;3.20;;;13.10;81.30;;;;;;5039627;28;20045;-52
2022/12/26 06:00:46;;;;;;;3.45;2.25;;;13.10;81.20;;;;;;5031724;28;20045;-55
2022/12/26 06:03:13;;;;;;;4.95;2.70;;;13.20;81.30;;;;;;5050442;28;20040;-53
2022/12/26 06:05:40;;;;;;;5.50;3.08;;;13.20;81.20;;;;;;5041561;28;20567;-55
2022/12/26 06:08:06;;;;;;;4.32;2.55;;;13.20;81.20;;;;;;5051123;28;20067;-53
2022/12/26 06:10:36;;;;;;;3.65;2.97;;;13.20;81.20;;;;;;5047301;28;20554;-55
2022/12/26 06:13:05;;;;;;;3.08;2.65;;;13.20;82.00;;;;;;5049217;28;20075;-53
2022/12/26 06:15:31;;;;;;;4.10;2.58;;;13.20;81.30;;;;;;5041318;28;20075;-55
2022/12/26 06:17:58;;;;;;;4.00;3.10;;;13.20;81.30;;;;;;5050612;28;20517;-55
2022/12/26 06:20:25;;;;;;;3.55;2.22;;;13.20;81.30;;;;;;5044287;28;20044;-54
2022/12/26 06:22:54;;;;;;;3.47;2.97;;;13.20;81.30;;;;;;5049600;28;20037;-53
2022/12/26 06:25:20;;;;;;;3.50;2.80;;;13.20;81.40;;;;;;5047359;28;20529;-53
2022/12/26 06:27:49;;;;;;;3.60;2.97;;;13.20;81.40;;;;;;5046861;28;20529;-50
2022/12/26 06:30:18;;;;;;;3.03;2.55;;;13.20;81.40;;;;;;5047367;28;20047;-51
2022/12/26 06:32:45;;;;;;;3.28;2.88;;;13.20;81.30;;;;;;5035200;28;20069;-53
2022/12/26 06:35:17;;;;;;;3.33;2.80;;;13.20;81.20;;;;;;5030092;28;20041;-55
2022/12/26 06:37:44;;;;;;;3.55;2.95;;;13.20;81.20;;;;;;5045026;28;20175;-50
2022/12/26 06:40:10;;;;;;;4.63;3.03;;;13.20;81.10;;;;;;5045985;28;20408;-51
2022/12/26 06:42:37;;;;;;;4.82;2.58;;;13.20;81.00;;;;;;5041874;28;20079;-52
2022/12/26 06:45:04;;;;;;;6.93;2.85;;;13.20;81.00;;;;;;5049376;28;20045;-50
2022/12/26 06:47:31;;;;;;;4.05;2.47;;;13.20;80.90;;;;;;5047946;28;20501;-52
2022/12/26 06:49:58;;;;;;;4.30;2.67;;;13.20;80.90;;;;;;5047761;28;20531;-52
2022/12/26 06:52:26;;;;;;;2.92;2.30;;;13.20;80.80;;;;;;5041127;28;20493;-51
2022/12/26 06:54:55;;;;;;;3.45;2.55;;;13.20;80.70;;;;;;5046158;28;20055;-50
2022/12/26 06:57:24;;;;;;;5.68;2.92;;;13.20;80.60;;;;;;5043495;28;20042;-52
2022/12/26 06:59:54;;;;;;;2.75;2.20;;;13.10;80.50;;;;;;5038480;28;20053;-52
2022/12/26 07:02:21;;;;;;;4.03;2.42;;;13.10;80.50;;;;;;5038480;28;20125;-51
2022/12/26 07:04:48;;;;;;;2.58;1.88;;;13.10;80.50;;;;;;5032500;28;20045;-50
2022/12/26 07:07:19;;;;;;;2.53;2.00;;;13.10;80.50;;;;;;5049167;28;20053;-50
2022/12/26 07:09:49;;;;;;;2.33;2.13;;;13.10;80.60;;;;;;5044827;28;20046;-53
2022/12/26 07:12:20;;;;;;;2.40;1.80;;;13.10;80.60;;;;;;5040645;28;20095;-54
2022/12/26 07:14:47;;;;;;;1.83;1.65;;;13.10;80.50;;;;;;5046481;28;20053;-51
2022/12/26 07:17:14;;;;;;;2.35;1.63;;;13.10;80.60;;;;;;5042868;28;20099;-55
2022/12/26 07:19:42;;;;;;;4.35;2.00;;;13.10;80.70;;;;;;5041289;28;20051;-55
2022/12/26 07:22:09;;;;;;;3.10;2.00;;;13.10;80.80;;;;;;5030740;28;20045;-55
2022/12/26 07:24:39;;;;;;;2.55;2.20;;;13.10;80.90;;;;;;5043418;28;20041;-55
2022/12/26 07:27:10;;;;;;;5.25;2.55;;;13.10;80.80;;;;;;5040779;28;20029;-55
2022/12/26 07:29:37;;;;;;;2.75;2.40;;;13.10;80.70;;;;;;5047741;28;20071;-55
2022/12/26 07:32:04;;;;;;;4.38;3.00;;;13.20;80.70;;;;;;5043967;28;20046;-55
2022/12/26 07:34:32;;;;;;;3.28;2.40;;;13.20;80.60;;;;;;5038093;28;20114;-55
2022/12/26 07:37:02;;;;;;;1.83;1.60;;;13.20;80.40;;;;;;5044565;28;20529;-55
2022/12/26 07:39:29;;;;;;;1.40;1.30;;;13.20;80.30;;;;;;5041066;28;20391;-54
2022/12/26 07:41:59;;;;;;;1.58;1.45;;;13.20;80.10;;;;;;5029775;28;20038;-51
2022/12/26 07:44:27;;;;;;;1.20;1.10;;;13.20;79.90;;;;;;5042390;28;20117;-53
2022/12/26 07:46:55;;;;;;;1.13;0.93;;;13.20;79.60;;;;;;5045559;28;20045;-55
2022/12/26 07:49:22;;;;;;;1.02;0.77;;;13.20;79.50;;;;;;5036657;28;20047;-55
2022/12/26 07:51:50;;;;;;;1.77;1.25;;;13.20;79.40;;;;;;5044120;28;20053;-51
2022/12/26 07:54:22;;;;;;;1.13;1.02;;;13.20;79.40;;;;;;5036310;28;20053;-52
2022/12/26 07:56:49;;;;;;;1.52;1.00;;;13.30;79.40;;;;;;5041675;28;20799;-55
2022/12/26 07:59:16;;;;;;;1.00;0.90;;;13.30;79.40;;;;;;5036112;28;20042;-52
2022/12/26 08:01:43;;;;;;;0.93;0.73;;;13.30;79.30;;;;;;5028579;28;20076;-51
2022/12/26 08:04:11;;;;;;;0.60;0.60;;;13.30;79.30;;;;;;5043788;28;20041;-53
2022/12/26 08:06:38;;;;;;;6.72;1.30;;;13.30;79.10;;;;;;5044153;28;20765;-50
2022/12/26 08:09:10;;;;;;;0.82;0.65;;;13.30;78.90;;;;;;5046996;28;20037;-55
2022/12/26 08:11:43;;;;;;;1.40;0.50;;;13.30;78.70;;;;;;5046047;28;20398;-51
2022/12/26 08:14:11;;;;;;;0.75;0.63;;;13.20;78.40;;;;;;5042201;28;20131;-52
2022/12/26 08:16:38;;;;;;;0.95;0.95;;;13.20;78.40;;;;;;5021961;28;20049;-51
2022/12/26 08:19:05;;;;;;;1.00;0.88;;;13.20;78.50;;;;;;5029553;28;20401;-55
2022/12/26 08:21:31;;;;;;;1.00;0.90;;;13.20;78.40;;;;;;5032812;28;20488;-54
2022/12/26 08:23:58;;;;;;;1.00;0.73;;;13.20;78.30;;;;;;5033063;28;20060;-53
2022/12/26 08:26:27;;;;;;;0.90;0.77;;;13.20;78.30;;;;;;5046420;28;20544;-54
2022/12/26 08:28:55;;;;;;;0.90;0.60;;;13.10;78.40;;;;;;5030870;28;20052;-52
2022/12/26 08:31:22;;;;;;;1.73;0.70;;;13.10;78.50;;;;;;5045907;28;20116;-50
2022/12/26 08:33:56;;;;;;;2.67;0.70;;;13.10;78.50;;;;;;5042123;28;20041;-54
2022/12/26 08:36:23;;;;;;;1.23;0.63;;;13.10;78.70;;;;;;5043134;28;20140;-52
2022/12/26 08:38:50;;;;;;;2.00;0.80;;;13.10;78.80;;;;;;5031614;28;20055;-51
2022/12/26 08:41:16;;;;;;;1.20;0.60;;;13.20;78.90;;;;;;5047343;28;20033;-49
2022/12/26 08:43:47;;;;;;;1.00;0.80;;;13.20;78.90;;;;;;5042165;28;20119;-54
2022/12/26 08:46:35;;;;;;;1.15;0.90;;;13.20;78.80;;;;;;5045679;28;20053;-51
2022/12/26 08:49:02;;;;;;;1.42;0.85;;;13.20;78.70;;;;;;5040338;28;20126;-53
2022/12/26 08:51:29;;;;;;;0.88;0.70;;;13.20;78.70;;;;;;5038567;28;20541;-50
2022/12/26 08:53:56;;;;;;;1.63;0.80;;;13.20;78.60;;;;;;5040247;28;20565;-54
2022/12/26 08:56:24;;;;;;;1.70;1.33;;;13.30;78.60;;;;;;5057119;22;20096;-51
2022/12/26 08:58:52;;;;;;;1.15;0.70;;;13.30;78.50;;;;;;5065743;28;20100;-52
2022/12/26 09:01:21;;;;;;;1.05;0.90;;;13.30;78.40;;;;;;5052590;28;20033;-52
2022/12/26 09:03:53;;;;;;;2.13;1.50;;;13.30;78.20;;;;;;5058646;28;20040;-50
2022/12/26 09:06:20;;;;;;;2.25;1.13;;;13.30;77.90;;;;;;5070680;28;20032;-51
2022/12/26 09:08:47;;;;;;;1.52;1.42;;;13.30;77.70;;;;;;5049731;28;20064;-52
2022/12/26 09:11:17;;;;;;;1.38;0.90;;;13.30;77.40;;;;;;5047670;28;20051;-49
2022/12/26 09:13:45;;;;;;;1.17;0.70;;;13.30;77.40;;;;;;5047751;28;20041;-53
2022/12/26 09:16:15;;;;;;;3.42;1.08;;;13.30;77.30;;;;;;5040811;28;20048;-53
2022/12/26 09:18:43;;;;;;;0.95;0.70;;;13.30;77.30;;;;;;5052093;28;20075;-50
2022/12/26 09:21:13;;;;;;;1.88;0.90;;;13.20;77.20;;;;;;5045368;28;20049;-54
2022/12/26 09:23:40;;;;;;;0.93;0.75;;;13.20;77.20;;;;;;5043534;28;20094;-49
2022/12/26 09:26:17;;;;;;;3.78;0.88;;;13.20;77.30;;;;;;5043339;28;20509;-53
2022/12/26 09:28:45;;;;;;;4.20;1.17;;;13.20;77.40;;;;;;5046821;28;20079;-49
2022/12/26 09:31:15;;;;;;;2.30;0.90;;;13.20;77.50;;;;;;5041893;28;20128;-50
2022/12/26 09:33:42;;;;;;;2.30;1.15;;;13.20;77.50;;;;;;5051422;28;20056;-53
2022/12/26 09:36:15;;;;;;;1.38;0.98;;;13.30;77.40;;;;;;5048282;28;20049;-53
2022/12/26 09:38:46;;;;;;;3.63;1.08;;;13.30;77.30;;;;;;5051392;28;20036;-51
2022/12/26 09:41:18;;;;;;;2.60;1.50;;;13.30;77.20;;;;;;5033329;28;20045;-52
2022/12/26 09:44:07;;;;;;;4.53;1.48;;;13.40;77.00;;;;;;5030440;28;20050;-49
2022/12/26 09:47:09;;;;;;;1.83;1.25;;;13.40;76.60;;;;;;5040928;28;20045;-51
2022/12/26 09:49:46;;;;;;;2.85;0.90;;;13.40;76.30;;;;;;5047714;28;20102;-51
2022/12/26 09:52:21;;;;;;;3.35;1.15;;;13.40;76.30;;;;;;5037603;28;20041;-52
2022/12/26 09:54:57;;;;;;;1.95;1.38;;;13.40;76.20;;;;;;5041426;28;20041;-51
2022/12/26 09:57:51;;;;;;;2.95;1.10;;;13.40;76.10;;;;;;5036938;28;20094;-50
2022/12/26 10:00:24;;;;;;;2.10;1.17;;;13.40;75.80;;;;;;5042663;28;20073;-51
2022/12/26 10:02:53;;;;;;;0.95;0.88;;;13.40;76.20;;;;;;5045557;28;20076;-50
2022/12/26 10:05:30;;;;;;;1.33;1.10;;;13.40;76.30;;;;;;5051788;28;20059;-51
2022/12/26 10:08:05;;;;;;;1.33;1.15;;;13.40;76.30;;;;;;5050658;28;20136;-52
2022/12/26 10:10:46;;;;;;;2.50;1.20;;;13.50;76.20;;;;;;5030508;28;20116;-51
2022/12/26 10:13:31;;;;;;;1.60;0.68;;;13.50;76.10;;;;;;5035023;28;20452;-52
2022/12/26 10:16:10;;;;;;;1.95;0.70;;;13.50;76.10;;;;;;5035844;28;20045;-51
2022/12/26 10:19:01;;;;;;;1.83;0.80;;;13.50;76.30;;;;;;5050181;28;20408;-50
2022/12/26 10:21:52;;;;;;;1.85;0.90;;;13.50;76.40;;;;;;5058484;28;20041;-50
2022/12/26 10:24:22;;;;;;;2.67;0.70;;;13.70;76.00;;;;;;5046743;28;20068;-52
2022/12/26 10:27:01;;;;;;;1.52;0.60;;;13.70;76.00;;;;;;5050212;28;20044;-51
2022/12/26 10:29:37;;;;;;;1.58;0.73;;;13.70;75.30;;;;;;5029906;28;20057;-54
2022/12/26 10:32:15;;;;;;;2.55;0.60;;;13.70;75.30;;;;;;5049926;28;20049;-54
2022/12/26 10:34:45;;;;;;;1.65;0.57;;;13.80;75.30;;;;;;5052136;28;20136;-54
2022/12/26 10:37:19;;;;;;;1.33;0.90;;;13.80;75.60;;;;;;5048564;28;20045;-54
2022/12/26 10:39:49;;;;;;;0.93;0.60;;;13.80;75.70;;;;;;5031293;28;20041;-53
2022/12/26 10:42:35;;;;;;;1.50;0.55;;;13.90;75.70;;;;;;5043927;28;20043;-54
2022/12/26 10:45:14;;;;;;;3.28;0.80;;;14.00;74.70;;;;;;5046718;28;20112;-53
2022/12/26 10:47:45;;;;;;;1.00;0.68;;;14.10;74.70;;;;;;5035608;28;20083;-53
2022/12/26 10:50:28;;;;;;;2.60;1.08;;;14.20;74.60;;;;;;5033979;28;20098;-54
2022/12/26 10:52:57;;;;;;;1.73;1.10;;;14.20;74.00;;;;;;5047252;28;20485;-54
2022/12/26 10:55:31;;;;;;;2.40;0.95;;;14.20;74.40;;;;;;5037910;28;20064;-51
2022/12/26 10:58:22;;;;;;;1.63;0.93;;;14.30;74.10;;;;;;5045397;28;20122;-54
2022/12/26 11:00:49;;;;;;;5.50;1.20;;;14.40;73.90;;;;;;5027168;28;20041;-52
2022/12/26 11:03:18;;;;;;;2.90;1.05;;;14.40;73.90;;;;;;5050176;28;20029;-51
2022/12/26 11:05:49;;;;;;;3.67;0.95;;;14.40;73.20;;;;;;5041921;28;20037;-52
2022/12/26 11:08:36;;;;;;;3.03;0.70;;;14.50;73.00;;;;;;5049998;28;20040;-50
2022/12/26 11:11:19;;;;;;;2.42;0.90;;;14.50;72.80;;;;;;5044306;28;20123;-51
2022/12/26 11:13:59;;;;;;;1.13;0.70;;;14.50;72.40;;;;;;5042987;28;20049;-54
2022/12/26 11:16:35;;;;;;;3.45;1.60;;;14.50;72.30;;;;;;5045648;28;20175;-52
2022/12/26 11:19:03;;;;;;;1.10;0.80;;;14.50;72.70;;;;;;5045756;28;20051;-50
2022/12/26 11:21:32;;;;;;;1.02;0.60;;;14.50;72.70;;;;;;5041159;28;20045;-50
2022/12/26 11:24:08;;;;;;;1.50;0.80;;;14.40;72.80;;;;;;5042783;28;20390;-51
2022/12/26 11:26:36;;;;;;;1.73;0.75;;;14.40;72.60;;;;;;5040501;28;20052;-51
2022/12/26 11:29:20;;;;;;;1.00;0.93;;;14.30;72.90;;;;;;5045561;28;20412;-51
2022/12/26 11:32:00;;;;;;;4.35;1.00;;;14.30;73.50;;;;;;5047675;28;20044;-52
2022/12/26 11:34:36;;;;;;;1.52;0.80;;;14.20;72.60;;;;;;5042857;28;20053;-54
2022/12/26 11:37:05;;;;;;;1.50;1.00;;;14.20;73.00;;;;;;5052195;28;20671;-50
2022/12/26 11:39:36;;;;;;;2.00;1.02;;;14.20;73.30;;;;;;5053918;28;20378;-54
2022/12/26 11:42:11;;;;;;;1.33;0.60;;;14.20;73.30;;;;;;5036011;28;20152;-53
2022/12/26 11:44:41;;;;;;;3.03;0.98;;;14.20;73.40;;;;;;5052100;28;20055;-51
2022/12/26 11:47:16;;;;;;;1.15;0.65;;;14.20;73.40;;;;;;5047938;28;20041;-50
2022/12/26 11:50:10;;;;;;;2.35;0.88;;;14.20;73.30;;;;;;5041646;28;20052;-54
2022/12/26 11:52:44;;;;;;;4.13;1.10;;;14.20;72.80;;;;;;5026237;28;20535;-53
2022/12/26 11:55:32;;;;;;;4.60;1.02;;;14.20;72.90;;;;;;5042116;28;20037;-52
2022/12/26 11:58:05;;;;;;;1.23;0.75;;;14.20;72.30;;;;;;5043752;28;20519;-54
2022/12/26 12:00:34;;;;;;;2.13;0.90;;;14.20;72.70;;;;;;5048850;28;20037;-53
2022/12/26 12:03:02;;;;;;;1.92;1.17;;;14.20;72.80;;;;;;5053280;28;20073;-53
2022/12/26 12:05:51;;;;;;;3.80;0.68;;;14.10;72.60;;;;;;5046513;28;20401;-51
2022/12/26 12:08:25;;;;;;;4.70;0.95;;;14.10;72.60;;;;;;5027598;28;20056;-50
2022/12/26 12:11:03;;;;;;;1.58;1.10;;;14.10;72.30;;;;;;5045248;28;20052;-50
2022/12/26 12:13:57;;;;;;;1.20;1.00;;;14.00;72.30;;;;;;5050830;28;20037;-52
2022/12/26 12:16:30;;;;;;;1.30;0.73;;;14.00;72.20;;;;;;5041069;28;20493;-51
2022/12/26 12:19:28;;;;;;;2.17;0.77;;;13.90;72.60;;;;;;5053063;28;20091;-51
2022/12/26 12:22:22;;;;;;;1.25;0.80;;;13.90;72.70;;;;;;5037444;28;20124;-54
2022/12/26 12:25:21;;;;;;;3.13;1.20;;;13.90;72.60;;;;;;5052723;28;20052;-50
2022/12/26 12:28:03;;;;;;;3.60;0.98;;;14.00;72.50;;;;;;5031897;28;20107;-51
2022/12/26 12:31:04;;;;;;;3.15;1.08;;;13.90;72.30;;;;;;5035634;28;20049;-54
2022/12/26 12:33:50;;;;;;;2.88;1.33;;;13.90;71.90;;;;;;5046594;28;20127;-50
2022/12/26 12:36:48;;;;;;;2.60;0.82;;;13.90;72.10;;;;;;5046647;28;20531;-53
2022/12/26 12:39:38;;;;;;;3.03;0.90;;;13.90;72.40;;;;;;5044725;28;20033;-54
2022/12/26 12:42:22;;;;;;;2.92;1.05;;;13.80;71.50;;;;;;5032078;28;20108;-54
2022/12/26 12:45:01;;;;;;;2.13;1.48;;;13.80;71.00;;;;;;5027823;28;20042;-54
2022/12/26 12:48:03;;;;;;;2.33;1.20;;;13.70;71.10;;;;;;5040647;28;20045;-53
2022/12/26 12:50:41;;;;;;;0.93;0.80;;;13.60;71.20;;;;;;5003179;28;20089;-52
2022/12/26 12:53:29;;;;;;;3.47;1.20;;;13.60;71.70;;;;;;5040717;28;20053;-53
2022/12/26 12:56:36;;;;;;;2.25;1.27;;;13.50;71.80;;;;;;5050757;28;20041;-53
2022/12/26 12:59:14;;;;;;;1.65;0.90;;;13.50;71.50;;;;;;5020678;28;20053;-52
2022/12/26 13:01:49;;;;;;;3.58;0.80;;;13.50;71.90;;;;;;5040379;28;20413;-53
2022/12/26 13:04:19;;;;;;;1.70;1.10;;;13.40;71.50;;;;;;5049941;28;20037;-50
2022/12/26 13:06:50;;;;;;;1.85;0.80;;;13.40;71.60;;;;;;5046233;28;20045;-53
2022/12/26 13:09:22;;;;;;;1.80;0.98;;;13.40;70.60;;;;;;5050494;28;20056;-53
2022/12/26 13:11:59;;;;;;;2.92;0.77;;;13.40;70.00;;;;;;5048374;28;20057;-52
2022/12/26 13:14:45;;;;;;;2.00;0.70;;;13.40;70.00;;;;;;5059674;28;20049;-54
2022/12/26 13:17:21;;;;;;;2.60;0.57;;;13.40;69.80;;;;;;5033382;28;20041;-53
2022/12/26 13:20:15;;;;;;;2.63;0.82;;;13.40;69.20;;;;;;5032311;28;20449;-55
2022/12/26 13:25:39;;;;;;;1.00;0.60;;;13.40;68.30;;;;;;5038380;28;20120;-53
2022/12/26 13:28:14;;;;;;;10.55;1.00;;;13.30;68.10;;;;;;5052247;28;20041;-53
2022/12/26 13:30:41;;;;;;;1.35;0.82;;;13.30;67.60;;;;;;5044053;28;20505;-51
2022/12/26 13:33:13;;;;;;;2.22;0.90;;;13.20;67.90;;;;;;5047972;28;20537;-52
2022/12/26 13:35:52;;;;;;;2.30;1.05;;;13.20;67.30;;;;;;5044202;28;20398;-55
2022/12/26 13:38:23;;;;;;;2.28;1.23;;;13.10;66.60;;;;;;5011498;28;20045;-52
2022/12/26 13:43:53;;;;;;;1.63;0.70;;;13.10;67.00;;;;;;5040888;28;20432;-52
2022/12/26 13:44:03;;;;;;;5.32;1.00;;;13.00;66.40;;;;;;5052998;28;20457;-53
2022/12/26 13:46:39;;;;;;;2.63;1.00;;;13.00;66.00;;;;;;5051922;28;20058;-52
2022/12/26 13:49:35;;;;;;;3.92;1.00;;;12.90;66.40;;;;;;5052856;28;20040;-54
2022/12/26 13:52:10;;;;;;;6.65;1.58;;;12.90;66.40;;;;;;5038632;28;20128;-50
2022/12/26 13:55:06;;;;;;;3.83;1.38;;;12.80;66.70;;;;;;5043361;28;20050;-53
2022/12/26 13:57:43;;;;;;;3.85;1.70;;;12.80;66.90;;;;;;5056450;28;20056;-54
2022/12/26 14:00:18;;;;;;;4.30;1.83;;;12.80;67.40;;;;;;5045049;28;20052;-53
2022/12/26 14:03:04;;;;;;;5.50;1.30;;;12.70;67.80;;;;;;5025543;28;20061;-54
2022/12/26 14:06:06;;;;;;;;;;;12.70;67.30;;;;;;5029842;28;20077;-54
2022/12/26 14:08:39;;;;;;;3.65;1.23;;;12.70;68.40;;;;;;5040449;28;19960;-55
2022/12/26 14:11:34;;;;;;;3.90;1.40;;;12.70;68.10;;;;;;5043017;28;20055;-55
2022/12/26 14:14:16;;;;;;;6.32;1.42;;;12.70;67.80;;;;;;5046181;28;20045;-50
2022/12/26 14:17:10;;;;;;;3.97;1.45;;;12.70;68.00;;;;;;5042420;28;20080;-54
2022/12/26 14:19:59;;;;;;;2.88;1.10;;;12.70;68.10;;;;;;5047918;28;20065;-53
2022/12/26 14:23:01;;;;;;;7.85;1.65;;;12.60;68.00;;;;;;5034603;28;20140;-55
2022/12/26 14:25:48;;;;;;;4.72;1.50;;;12.60;67.30;;;;;;5045999;28;20135;-51
2022/12/26 14:28:30;;;;;;;4.15;1.95;;;12.60;67.30;;;;;;5047812;28;20383;-53
2022/12/26 14:31:08;;;;;;;5.65;1.33;;;12.50;66.90;;;;;;5038180;28;20124;-55
2022/12/26 14:33:58;;;;;;;3.83;1.35;;;12.40;67.10;;;;;;5031012;28;20456;-53
2022/12/26 14:36:50;;;;;;;3.83;2.10;;;12.40;66.40;;;;;;5036212;28;20120;-51
2022/12/26 14:39:45;;;;;;;2.58;1.40;;;12.30;66.40;;;;;;5045896;28;20043;-52
2022/12/26 14:45:31;;;;;;;4.38;1.52;;;12.20;67.10;;;;;;5032733;28;20100;-53
2022/12/26 14:47:58;;;;;;;2.72;1.13;;;12.10;66.80;;;;;;5051351;28;20841;-52
2022/12/26 14:50:31;;;;;;;3.65;1.13;;;12.10;67.40;;;;;;5030929;28;20042;-54
2022/12/26 14:53:28;;;;;;;5.95;1.98;;;12.10;67.20;;;;;;5038123;28;20448;-54
2022/12/26 14:56:16;;;;;;;7.13;1.35;;;12.10;67.20;;;;;;5039710;28;20454;-52
2022/12/26 14:58:48;;;;;;;4.43;1.40;;;12.00;67.10;;;;;;5044111;28;20128;-51
2022/12/26 15:01:16;;;;;;;7.03;1.60;;;12.00;67.50;;;;;;5033790;28;20152;-52
2022/12/26 15:03:43;;;;;;;5.78;1.75;;;11.90;67.70;;;;;;5041648;28;20440;-53
2022/12/26 15:06:18;;;;;;;3.22;1.25;;;11.90;67.70;;;;;;5044791;28;20045;-51
2022/12/26 15:08:56;;;;;;;7.10;1.83;;;11.90;67.30;;;;;;5069622;23;20188;-55
2022/12/26 15:12:05;;;;;;;5.43;1.65;;;11.80;67.20;;;;;;5063449;28;20410;-53
2022/12/26 15:15:01;;;;;;;3.47;1.27;;;11.80;67.20;;;;;;5057994;28;20053;-55
2022/12/26 15:18:02;;;;;;;4.55;1.77;;;11.80;67.10;;;;;;5075104;28;20120;-56
2022/12/26 15:20:53;;;;;;;2.80;1.23;;;11.80;67.10;;;;;;5045315;28;20053;-50
2022/12/26 15:23:41;;;;;;;2.88;1.30;;;11.70;67.50;;;;;;5049011;28;20197;-50
2022/12/26 15:26:07;;;;;;;4.57;1.23;;;11.70;67.10;;;;;;5051207;28;20497;-52
2022/12/26 15:29:10;;;;;;;3.97;1.50;;;11.60;67.00;;;;;;5051857;28;20069;-55
2022/12/26 15:31:46;;;;;;;3.70;1.33;;;11.60;66.40;;;;;;5054311;28;20489;-54
2022/12/26 15:34:42;;;;;;;5.32;1.60;;;11.50;66.40;;;;;;5066941;28;20036;-52
2022/12/26 15:37:20;;;;;;;4.78;1.30;;;11.50;66.40;;;;;;5048928;28;20075;-53
2022/12/26 15:39:55;;;;;;;2.60;1.25;;;11.40;66.80;;;;;;5054245;28;20044;-50
2022/12/26 15:42:49;;;;;;;4.70;1.20;;;11.30;66.60;;;;;;5060251;28;20107;-53
2022/12/26 15:45:40;;;;;;;5.15;1.50;;;11.30;66.80;;;;;;5059753;28;20104;-53
2022/12/26 15:48:25;;;;;;;4.65;1.70;;;11.20;66.60;;;;;;5053284;28;20405;-54